sensor_id;sensor_type;location;lat;lon;timestamp;P1;durP1;ratioP1;P2;durP2;ratioP2
16998;SDS011;10211;49.476;11.010;2023-08-31T00:00:21;3.00;;;2.70;;
16998;SDS011;10211;49.476;11.010;2023-08-31T00:02:48;2.80;;;2.37;;
16998;SDS011;10211;49.476;11.010;2023-08-31T00:05:15;4.33;;;2.73;;
16998;SDS011;10211;49.476;11.010;2023-08-31T00:07:42;4.03;;;2.73;;
16998;SDS011;10211;49.476;11.010;2023-08-31T00:10:08;2.40;;;2.20;;
16998;SDS011;10211;49.476;11.010;2023-08-31T00:12:38;3.43;;;2.30;;
16998;SDS011;10211;49.476;11.010;2023-08-31T00:15:05;2.77;;;2.57;;
16998;SDS011;10211;49.476;11.010;2023-08-31T00:17:34;2.63;;;2.20;;
16998;SDS011;10211;49.476;11.010;2023-08-31T00:20:00;2.50;;;2.30;;
16998;SDS011;10211;49.476;11.010;2023-08-31T00:22:30;3.60;;;2.60;;
16998;SDS011;10211;49.476;11.010;2023-08-31T00:24:57;4.40;;;2.83;;
16998;SDS011;10211;49.476;11.010;2023-08-31T00:27:24;3.60;;;2.93;;
16998;SDS011;10211;49.476;11.010;2023-08-31T00:29:53;2.77;;;2.53;;
16998;SDS011;10211;49.476;11.010;2023-08-31T00:32:20;3.07;;;2.67;;
16998;SDS011;10211;49.476;11.010;2023-08-31T00:34:48;2.77;;;2.40;;
16998;SDS011;10211;49.476;11.010;2023-08-31T00:37:15;3.17;;;2.20;;
16998;SDS011;10211;49.476;11.010;2023-08-31T00:39:42;3.20;;;2.90;;
16998;SDS011;10211;49.476;11.010;2023-08-31T00:42:09;2.40;;;2.20;;
16998;SDS011;10211;49.476;11.010;2023-08-31T00:44:36;4.60;;;2.90;;
16998;SDS011;10211;49.476;11.010;2023-08-31T00:47:04;2.00;;;1.90;;
16998;SDS011;10211;49.476;11.010;2023-08-31T00:49:31;2.60;;;2.17;;
16998;SDS011;10211;49.476;11.010;2023-08-31T00:51:58;2.93;;;2.40;;
16998;SDS011;10211;49.476;11.010;2023-08-31T00:54:25;8.73;;;2.90;;
16998;SDS011;10211;49.476;11.010;2023-08-31T00:56:52;4.03;;;2.63;;
16998;SDS011;10211;49.476;11.010;2023-08-31T00:59:19;2.50;;;2.30;;
16998;SDS011;10211;49.476;11.010;2023-08-31T01:01:48;3.23;;;2.37;;
16998;SDS011;10211;49.476;11.010;2023-08-31T01:04:21;2.97;;;2.67;;
16998;SDS011;10211;49.476;11.010;2023-08-31T01:06:57;3.07;;;2.33;;
16998;SDS011;10211;49.476;11.010;2023-08-31T01:09:32;2.20;;;1.77;;
16998;SDS011;10211;49.476;11.010;2023-08-31T01:12:06;3.10;;;2.83;;
16998;SDS011;10211;49.476;11.010;2023-08-31T01:14:38;3.63;;;2.40;;
16998;SDS011;10211;49.476;11.010;2023-08-31T01:17:11;3.67;;;2.43;;
16998;SDS011;10211;49.476;11.010;2023-08-31T01:19:44;2.87;;;2.57;;
16998;SDS011;10211;49.476;11.010;2023-08-31T01:22:16;3.93;;;2.97;;
16998;SDS011;10211;49.476;11.010;2023-08-31T01:24:52;3.33;;;2.20;;
16998;SDS011;10211;49.476;11.010;2023-08-31T01:27:19;2.70;;;2.50;;
16998;SDS011;10211;49.476;11.010;2023-08-31T01:29:47;3.20;;;2.30;;
16998;SDS011;10211;49.476;11.010;2023-08-31T01:32:14;2.40;;;2.20;;
16998;SDS011;10211;49.476;11.010;2023-08-31T01:34:41;4.63;;;2.47;;
16998;SDS011;10211;49.476;11.010;2023-08-31T01:37:09;4.27;;;2.40;;
16998;SDS011;10211;49.476;11.010;2023-08-31T01:39:39;2.30;;;2.10;;
16998;SDS011;10211;49.476;11.010;2023-08-31T01:42:13;2.63;;;1.80;;
16998;SDS011;10211;49.476;11.010;2023-08-31T01:44:42;2.30;;;2.10;;
16998;SDS011;10211;49.476;11.010;2023-08-31T01:47:13;3.33;;;2.50;;
16998;SDS011;10211;49.476;11.010;2023-08-31T01:49:42;2.57;;;2.37;;
16998;SDS011;10211;49.476;11.010;2023-08-31T01:52:09;1.80;;;1.70;;
16998;SDS011;10211;49.476;11.010;2023-08-31T01:54:36;3.60;;;2.00;;
16998;SDS011;10211;49.476;11.010;2023-08-31T01:57:03;3.33;;;2.30;;
16998;SDS011;10211;49.476;11.010;2023-08-31T01:59:32;3.13;;;2.40;;
16998;SDS011;10211;49.476;11.010;2023-08-31T02:02:00;3.90;;;1.90;;
16998;SDS011;10211;49.476;11.010;2023-08-31T02:04:27;2.87;;;2.03;;
16998;SDS011;10211;49.476;11.010;2023-08-31T02:06:54;2.17;;;1.97;;
16998;SDS011;10211;49.476;11.010;2023-08-31T02:09:20;2.30;;;2.10;;
16998;SDS011;10211;49.476;11.010;2023-08-31T02:11:47;3.00;;;2.07;;
16998;SDS011;10211;49.476;11.010;2023-08-31T02:14:14;2.10;;;2.00;;
16998;SDS011;10211;49.476;11.010;2023-08-31T02:16:42;2.57;;;2.10;;
16998;SDS011;10211;49.476;11.010;2023-08-31T02:19:09;2.10;;;1.90;;
16998;SDS011;10211;49.476;11.010;2023-08-31T02:21:36;2.10;;;1.90;;
16998;SDS011;10211;49.476;11.010;2023-08-31T02:24:03;2.37;;;2.10;;
16998;SDS011;10211;49.476;11.010;2023-08-31T02:26:31;3.90;;;2.20;;
16998;SDS011;10211;49.476;11.010;2023-08-31T02:28:57;3.13;;;2.43;;
16998;SDS011;10211;49.476;11.010;2023-08-31T02:31:24;2.50;;;2.30;;
16998;SDS011;10211;49.476;11.010;2023-08-31T02:33:52;2.47;;;2.20;;
16998;SDS011;10211;49.476;11.010;2023-08-31T02:36:19;2.63;;;2.40;;
16998;SDS011;10211;49.476;11.010;2023-08-31T02:38:46;3.17;;;2.20;;
16998;SDS011;10211;49.476;11.010;2023-08-31T02:41:14;3.17;;;2.70;;
16998;SDS011;10211;49.476;11.010;2023-08-31T02:43:41;2.53;;;2.30;;
16998;SDS011;10211;49.476;11.010;2023-08-31T02:46:08;2.20;;;2.10;;
16998;SDS011;10211;49.476;11.010;2023-08-31T02:48:35;2.67;;;2.20;;
16998;SDS011;10211;49.476;11.010;2023-08-31T02:51:03;2.70;;;2.23;;
16998;SDS011;10211;49.476;11.010;2023-08-31T02:53:31;3.33;;;2.10;;
16998;SDS011;10211;49.476;11.010;2023-08-31T02:55:58;3.37;;;2.10;;
16998;SDS011;10211;49.476;11.010;2023-08-31T02:58:24;4.23;;;2.20;;
16998;SDS011;10211;49.476;11.010;2023-08-31T03:00:51;3.40;;;2.57;;
16998;SDS011;10211;49.476;11.010;2023-08-31T03:03:18;4.37;;;2.40;;
16998;SDS011;10211;49.476;11.010;2023-08-31T03:05:45;2.80;;;2.57;;
16998;SDS011;10211;49.476;11.010;2023-08-31T03:08:13;6.43;;;2.70;;
16998;SDS011;10211;49.476;11.010;2023-08-31T03:10:40;3.50;;;2.30;;
16998;SDS011;10211;49.476;11.010;2023-08-31T03:13:07;8.00;;;2.67;;
16998;SDS011;10211;49.476;11.010;2023-08-31T03:15:33;4.60;;;2.53;;
16998;SDS011;10211;49.476;11.010;2023-08-31T03:18:00;3.93;;;2.70;;
16998;SDS011;10211;49.476;11.010;2023-08-31T03:20:27;5.37;;;3.20;;
16998;SDS011;10211;49.476;11.010;2023-08-31T03:22:54;5.43;;;2.70;;
16998;SDS011;10211;49.476;11.010;2023-08-31T03:25:22;4.20;;;2.50;;
16998;SDS011;10211;49.476;11.010;2023-08-31T03:27:49;5.60;;;3.07;;
16998;SDS011;10211;49.476;11.010;2023-08-31T03:30:16;3.67;;;2.63;;
16998;SDS011;10211;49.476;11.010;2023-08-31T03:32:42;2.77;;;2.57;;
16998;SDS011;10211;49.476;11.010;2023-08-31T03:35:09;2.77;;;2.57;;
16998;SDS011;10211;49.476;11.010;2023-08-31T03:37:36;3.30;;;3.00;;
16998;SDS011;10211;49.476;11.010;2023-08-31T03:40:04;3.30;;;2.80;;
16998;SDS011;10211;49.476;11.010;2023-08-31T03:42:33;3.97;;;3.10;;
16998;SDS011;10211;49.476;11.010;2023-08-31T03:45:00;4.53;;;2.67;;
16998;SDS011;10211;49.476;11.010;2023-08-31T03:47:26;2.80;;;2.60;;
16998;SDS011;10211;49.476;11.010;2023-08-31T03:49:53;7.17;;;2.70;;
16998;SDS011;10211;49.476;11.010;2023-08-31T03:52:20;4.50;;;2.70;;
16998;SDS011;10211;49.476;11.010;2023-08-31T03:54:47;4.87;;;2.90;;
16998;SDS011;10211;49.476;11.010;2023-08-31T03:57:15;3.60;;;3.10;;
16998;SDS011;10211;49.476;11.010;2023-08-31T03:59:44;4.43;;;3.57;;
16998;SDS011;10211;49.476;11.010;2023-08-31T04:02:10;3.57;;;2.97;;
16998;SDS011;10211;49.476;11.010;2023-08-31T04:04:37;6.53;;;3.23;;
16998;SDS011;10211;49.476;11.010;2023-08-31T04:07:04;3.20;;;2.90;;
16998;SDS011;10211;49.476;11.010;2023-08-31T04:09:31;3.40;;;3.10;;
16998;SDS011;10211;49.476;11.010;2023-08-31T04:11:58;5.53;;;3.03;;
16998;SDS011;10211;49.476;11.010;2023-08-31T04:14:25;3.17;;;2.87;;
16998;SDS011;10211;49.476;11.010;2023-08-31T04:16:54;5.83;;;3.37;;
16998;SDS011;10211;49.476;11.010;2023-08-31T04:19:20;7.23;;;3.17;;
16998;SDS011;10211;49.476;11.010;2023-08-31T04:21:47;3.90;;;3.57;;
16998;SDS011;10211;49.476;11.010;2023-08-31T04:24:14;7.27;;;3.63;;
16998;SDS011;10211;49.476;11.010;2023-08-31T04:26:40;4.27;;;3.60;;
16998;SDS011;10211;49.476;11.010;2023-08-31T04:29:08;4.80;;;3.70;;
16998;SDS011;10211;49.476;11.010;2023-08-31T04:31:35;4.33;;;3.70;;
16998;SDS011;10211;49.476;11.010;2023-08-31T04:34:04;5.83;;;3.63;;
16998;SDS011;10211;49.476;11.010;2023-08-31T04:36:32;6.70;;;4.00;;
16998;SDS011;10211;49.476;11.010;2023-08-31T04:38:59;5.87;;;3.70;;
16998;SDS011;10211;49.476;11.010;2023-08-31T04:41:25;3.97;;;3.57;;
16998;SDS011;10211;49.476;11.010;2023-08-31T04:43:52;3.80;;;3.40;;
16998;SDS011;10211;49.476;11.010;2023-08-31T04:46:19;8.07;;;4.03;;
16998;SDS011;10211;49.476;11.010;2023-08-31T04:48:48;7.07;;;4.13;;
16998;SDS011;10211;49.476;11.010;2023-08-31T04:51:29;8.40;;;4.20;;
16998;SDS011;10211;49.476;11.010;2023-08-31T04:53:57;5.60;;;4.73;;
16998;SDS011;10211;49.476;11.010;2023-08-31T04:56:24;7.83;;;4.87;;
16998;SDS011;10211;49.476;11.010;2023-08-31T04:58:51;7.10;;;5.60;;
16998;SDS011;10211;49.476;11.010;2023-08-31T05:01:18;5.40;;;4.73;;
16998;SDS011;10211;49.476;11.010;2023-08-31T05:03:44;6.00;;;5.40;;
16998;SDS011;10211;49.476;11.010;2023-08-31T05:06:11;5.63;;;5.10;;
16998;SDS011;10211;49.476;11.010;2023-08-31T05:08:39;7.97;;;6.00;;
16998;SDS011;10211;49.476;11.010;2023-08-31T05:11:06;6.70;;;6.10;;
16998;SDS011;10211;49.476;11.010;2023-08-31T05:13:33;7.63;;;6.53;;
16998;SDS011;10211;49.476;11.010;2023-08-31T05:16:00;9.37;;;6.13;;
16998;SDS011;10211;49.476;11.010;2023-08-31T05:18:27;9.13;;;7.40;;
16998;SDS011;10211;49.476;11.010;2023-08-31T05:20:54;9.03;;;5.90;;
16998;SDS011;10211;49.476;11.010;2023-08-31T05:23:21;10.80;;;7.20;;
16998;SDS011;10211;49.476;11.010;2023-08-31T05:25:49;9.03;;;6.13;;
16998;SDS011;10211;49.476;11.010;2023-08-31T05:28:16;9.03;;;6.53;;
16998;SDS011;10211;49.476;11.010;2023-08-31T05:30:47;8.97;;;6.17;;
16998;SDS011;10211;49.476;11.010;2023-08-31T05:33:15;8.43;;;5.97;;
16998;SDS011;10211;49.476;11.010;2023-08-31T05:35:42;7.07;;;5.87;;
16998;SDS011;10211;49.476;11.010;2023-08-31T05:38:09;6.37;;;5.77;;
16998;SDS011;10211;49.476;11.010;2023-08-31T05:40:36;6.00;;;5.40;;
16998;SDS011;10211;49.476;11.010;2023-08-31T05:43:04;9.30;;;6.37;;
16998;SDS011;10211;49.476;11.010;2023-08-31T05:45:31;11.20;;;6.90;;
16998;SDS011;10211;49.476;11.010;2023-08-31T05:47:58;8.80;;;5.77;;
16998;SDS011;10211;49.476;11.010;2023-08-31T05:50:26;10.73;;;7.07;;
16998;SDS011;10211;49.476;11.010;2023-08-31T05:52:53;7.37;;;6.07;;
16998;SDS011;10211;49.476;11.010;2023-08-31T05:55:20;8.83;;;5.60;;
16998;SDS011;10211;49.476;11.010;2023-08-31T05:57:47;9.00;;;5.80;;
16998;SDS011;10211;49.476;11.010;2023-08-31T06:00:16;9.30;;;6.03;;
16998;SDS011;10211;49.476;11.010;2023-08-31T06:02:44;7.67;;;5.87;;
16998;SDS011;10211;49.476;11.010;2023-08-31T06:05:11;6.10;;;5.50;;
16998;SDS011;10211;49.476;11.010;2023-08-31T06:07:41;9.97;;;6.17;;
16998;SDS011;10211;49.476;11.010;2023-08-31T06:10:08;7.00;;;6.37;;
16998;SDS011;10211;49.476;11.010;2023-08-31T06:12:35;7.73;;;6.20;;
16998;SDS011;10211;49.476;11.010;2023-08-31T06:15:03;5.60;;;5.00;;
16998;SDS011;10211;49.476;11.010;2023-08-31T06:17:31;8.70;;;6.13;;
16998;SDS011;10211;49.476;11.010;2023-08-31T06:20:00;13.27;;;7.07;;
16998;SDS011;10211;49.476;11.010;2023-08-31T06:22:27;7.73;;;6.60;;
16998;SDS011;10211;49.476;11.010;2023-08-31T06:24:53;7.47;;;6.30;;
16998;SDS011;10211;49.476;11.010;2023-08-31T06:27:20;7.10;;;6.40;;
16998;SDS011;10211;49.476;11.010;2023-08-31T06:29:47;10.23;;;5.70;;
16998;SDS011;10211;49.476;11.010;2023-08-31T06:32:14;6.60;;;5.90;;
16998;SDS011;10211;49.476;11.010;2023-08-31T06:34:43;6.60;;;5.60;;
16998;SDS011;10211;49.476;11.010;2023-08-31T06:37:10;5.27;;;4.87;;
16998;SDS011;10211;49.476;11.010;2023-08-31T06:39:37;6.27;;;4.80;;
16998;SDS011;10211;49.476;11.010;2023-08-31T06:42:05;6.87;;;5.77;;
16998;SDS011;10211;49.476;11.010;2023-08-31T06:44:32;7.33;;;5.63;;
16998;SDS011;10211;49.476;11.010;2023-08-31T06:46:59;8.27;;;5.33;;
16998;SDS011;10211;49.476;11.010;2023-08-31T06:49:27;5.93;;;5.03;;
16998;SDS011;10211;49.476;11.010;2023-08-31T06:51:56;6.00;;;4.83;;
16998;SDS011;10211;49.476;11.010;2023-08-31T06:54:23;5.50;;;4.70;;
16998;SDS011;10211;49.476;11.010;2023-08-31T06:56:50;5.73;;;4.97;;
16998;SDS011;10211;49.476;11.010;2023-08-31T06:59:16;12.07;;;5.20;;
16998;SDS011;10211;49.476;11.010;2023-08-31T07:01:44;7.93;;;4.90;;
16998;SDS011;10211;49.476;11.010;2023-08-31T07:04:11;5.53;;;4.87;;
16998;SDS011;10211;49.476;11.010;2023-08-31T07:06:38;9.07;;;4.80;;
16998;SDS011;10211;49.476;11.010;2023-08-31T07:09:06;6.37;;;3.83;;
16998;SDS011;10211;49.476;11.010;2023-08-31T07:11:33;4.20;;;3.77;;
16998;SDS011;10211;49.476;11.010;2023-08-31T07:14:00;5.87;;;3.80;;
16998;SDS011;10211;49.476;11.010;2023-08-31T07:16:27;4.07;;;3.77;;
16998;SDS011;10211;49.476;11.010;2023-08-31T07:18:53;6.27;;;3.77;;
16998;SDS011;10211;49.476;11.010;2023-08-31T07:21:20;3.63;;;3.30;;
16998;SDS011;10211;49.476;11.010;2023-08-31T07:23:47;6.10;;;3.40;;
16998;SDS011;10211;49.476;11.010;2023-08-31T07:26:15;4.07;;;3.67;;
16998;SDS011;10211;49.476;11.010;2023-08-31T07:28:42;3.87;;;3.47;;
16998;SDS011;10211;49.476;11.010;2023-08-31T07:31:09;6.13;;;3.37;;
16998;SDS011;10211;49.476;11.010;2023-08-31T07:33:36;6.87;;;3.50;;
16998;SDS011;10211;49.476;11.010;2023-08-31T07:36:03;4.47;;;3.10;;
16998;SDS011;10211;49.476;11.010;2023-08-31T07:38:31;6.90;;;3.57;;
16998;SDS011;10211;49.476;11.010;2023-08-31T07:40:58;5.00;;;2.97;;
16998;SDS011;10211;49.476;11.010;2023-08-31T07:43:27;3.13;;;2.60;;
16998;SDS011;10211;49.476;11.010;2023-08-31T07:45:54;4.63;;;2.70;;
16998;SDS011;10211;49.476;11.010;2023-08-31T07:48:21;4.10;;;2.63;;
16998;SDS011;10211;49.476;11.010;2023-08-31T07:50:49;5.00;;;2.80;;
16998;SDS011;10211;49.476;11.010;2023-08-31T07:53:16;4.70;;;2.73;;
16998;SDS011;10211;49.476;11.010;2023-08-31T07:55:50;6.67;;;2.60;;
16998;SDS011;10211;49.476;11.010;2023-08-31T07:58:19;3.17;;;2.23;;
16998;SDS011;10211;49.476;11.010;2023-08-31T08:00:47;5.90;;;2.40;;
16998;SDS011;10211;49.476;11.010;2023-08-31T08:03:14;4.70;;;3.27;;
16998;SDS011;10211;49.476;11.010;2023-08-31T08:05:41;2.27;;;1.90;;
16998;SDS011;10211;49.476;11.010;2023-08-31T08:08:08;2.90;;;2.33;;
16998;SDS011;10211;49.476;11.010;2023-08-31T08:10:34;4.13;;;1.90;;
16998;SDS011;10211;49.476;11.010;2023-08-31T08:13:01;2.47;;;1.90;;
16998;SDS011;10211;49.476;11.010;2023-08-31T08:15:28;3.70;;;2.00;;
16998;SDS011;10211;49.476;11.010;2023-08-31T08:17:56;2.80;;;2.00;;
16998;SDS011;10211;49.476;11.010;2023-08-31T08:20:23;3.13;;;1.67;;
16998;SDS011;10211;49.476;11.010;2023-08-31T08:22:50;3.13;;;1.70;;
16998;SDS011;10211;49.476;11.010;2023-08-31T08:25:18;5.30;;;2.27;;
16998;SDS011;10211;49.476;11.010;2023-08-31T08:27:45;5.20;;;1.87;;
16998;SDS011;10211;49.476;11.010;2023-08-31T08:30:12;2.90;;;1.70;;
16998;SDS011;10211;49.476;11.010;2023-08-31T08:32:40;2.70;;;1.50;;
16998;SDS011;10211;49.476;11.010;2023-08-31T08:35:08;2.30;;;1.33;;
16998;SDS011;10211;49.476;11.010;2023-08-31T08:37:35;4.83;;;1.73;;
16998;SDS011;10211;49.476;11.010;2023-08-31T08:40:02;4.83;;;1.60;;
16998;SDS011;10211;49.476;11.010;2023-08-31T08:42:30;4.73;;;1.50;;
16998;SDS011;10211;49.476;11.010;2023-08-31T08:44:57;2.37;;;1.47;;
16998;SDS011;10211;49.476;11.010;2023-08-31T08:47:24;1.80;;;1.30;;
16998;SDS011;10211;49.476;11.010;2023-08-31T08:49:53;2.57;;;1.63;;
16998;SDS011;10211;49.476;11.010;2023-08-31T08:52:22;2.83;;;1.53;;
16998;SDS011;10211;49.476;11.010;2023-08-31T08:54:49;4.50;;;1.87;;
16998;SDS011;10211;49.476;11.010;2023-08-31T08:57:16;4.40;;;1.93;;
16998;SDS011;10211;49.476;11.010;2023-08-31T08:59:43;3.67;;;1.70;;
16998;SDS011;10211;49.476;11.010;2023-08-31T09:02:10;3.17;;;1.70;;
16998;SDS011;10211;49.476;11.010;2023-08-31T09:04:37;1.50;;;1.10;;
16998;SDS011;10211;49.476;11.010;2023-08-31T09:07:04;3.60;;;1.70;;
16998;SDS011;10211;49.476;11.010;2023-08-31T09:09:32;3.47;;;1.80;;
16998;SDS011;10211;49.476;11.010;2023-08-31T09:12:15;2.33;;;1.60;;
16998;SDS011;10211;49.476;11.010;2023-08-31T09:14:42;3.10;;;1.30;;
16998;SDS011;10211;49.476;11.010;2023-08-31T09:17:09;3.60;;;1.63;;
16998;SDS011;10211;49.476;11.010;2023-08-31T09:19:36;1.70;;;1.40;;
16998;SDS011;10211;49.476;11.010;2023-08-31T09:22:02;4.10;;;1.73;;
16998;SDS011;10211;49.476;11.010;2023-08-31T09:24:40;2.47;;;1.57;;
16998;SDS011;10211;49.476;11.010;2023-08-31T09:27:08;2.33;;;1.40;;
16998;SDS011;10211;49.476;11.010;2023-08-31T09:29:37;3.77;;;1.47;;
16998;SDS011;10211;49.476;11.010;2023-08-31T09:32:05;2.07;;;1.40;;
16998;SDS011;10211;49.476;11.010;2023-08-31T09:34:34;2.20;;;1.40;;
16998;SDS011;10211;49.476;11.010;2023-08-31T09:37:05;2.63;;;1.37;;
16998;SDS011;10211;49.476;11.010;2023-08-31T09:39:35;2.30;;;1.33;;
16998;SDS011;10211;49.476;11.010;2023-08-31T09:42:04;3.13;;;1.40;;
16998;SDS011;10211;49.476;11.010;2023-08-31T09:44:31;2.23;;;1.20;;
16998;SDS011;10211;49.476;11.010;2023-08-31T09:46:58;1.30;;;1.20;;
16998;SDS011;10211;49.476;11.010;2023-08-31T09:49:25;5.80;;;1.70;;
16998;SDS011;10211;49.476;11.010;2023-08-31T09:51:52;2.03;;;1.13;;
16998;SDS011;10211;49.476;11.010;2023-08-31T09:54:19;1.77;;;0.90;;
16998;SDS011;10211;49.476;11.010;2023-08-31T09:56:48;1.95;;;1.25;;
16998;SDS011;10211;49.476;11.010;2023-08-31T09:59:16;1.10;;;1.00;;
16998;SDS011;10211;49.476;11.010;2023-08-31T10:01:45;1.85;;;1.30;;
16998;SDS011;10211;49.476;11.010;2023-08-31T10:04:13;1.73;;;1.30;;
16998;SDS011;10211;49.476;11.010;2023-08-31T10:06:40;2.47;;;1.02;;
16998;SDS011;10211;49.476;11.010;2023-08-31T10:09:07;4.22;;;1.45;;
16998;SDS011;10211;49.476;11.010;2023-08-31T10:11:36;1.65;;;1.10;;
16998;SDS011;10211;49.476;11.010;2023-08-31T10:14:05;1.65;;;1.20;;
16998;SDS011;10211;49.476;11.010;2023-08-31T10:16:34;1.65;;;1.45;;
16998;SDS011;10211;49.476;11.010;2023-08-31T10:19:02;3.75;;;1.63;;
16998;SDS011;10211;49.476;11.010;2023-08-31T10:21:29;2.05;;;1.48;;
16998;SDS011;10211;49.476;11.010;2023-08-31T10:23:55;2.10;;;1.50;;
16998;SDS011;10211;49.476;11.010;2023-08-31T10:26:23;3.07;;;1.97;;
16998;SDS011;10211;49.476;11.010;2023-08-31T10:28:51;3.30;;;1.90;;
16998;SDS011;10211;49.476;11.010;2023-08-31T10:31:18;2.70;;;1.83;;
16998;SDS011;10211;49.476;11.010;2023-08-31T10:33:55;4.07;;;2.00;;
16998;SDS011;10211;49.476;11.010;2023-08-31T10:36:34;2.93;;;1.53;;
16998;SDS011;10211;49.476;11.010;2023-08-31T10:39:04;3.13;;;1.93;;
16998;SDS011;10211;49.476;11.010;2023-08-31T10:41:33;3.17;;;1.83;;
16998;SDS011;10211;49.476;11.010;2023-08-31T10:44:01;2.73;;;1.60;;
16998;SDS011;10211;49.476;11.010;2023-08-31T10:46:29;4.23;;;1.80;;
16998;SDS011;10211;49.476;11.010;2023-08-31T10:48:59;2.00;;;1.63;;
16998;SDS011;10211;49.476;11.010;2023-08-31T10:51:28;3.13;;;1.83;;
16998;SDS011;10211;49.476;11.010;2023-08-31T10:54:06;3.27;;;1.60;;
16998;SDS011;10211;49.476;11.010;2023-08-31T10:56:38;1.60;;;1.50;;
16998;SDS011;10211;49.476;11.010;2023-08-31T10:59:40;4.37;;;2.00;;
16998;SDS011;10211;49.476;11.010;2023-08-31T11:02:28;2.83;;;1.90;;
16998;SDS011;10211;49.476;11.010;2023-08-31T11:05:00;7.53;;;2.40;;
16998;SDS011;10211;49.476;11.010;2023-08-31T11:07:31;2.50;;;1.70;;
16998;SDS011;10211;49.476;11.010;2023-08-31T11:10:10;1.63;;;1.23;;
16998;SDS011;10211;49.476;11.010;2023-08-31T11:12:38;1.80;;;1.33;;
16998;SDS011;10211;49.476;11.010;2023-08-31T11:15:07;1.58;;;1.38;;
16998;SDS011;10211;49.476;11.010;2023-08-31T11:17:34;2.40;;;1.45;;
16998;SDS011;10211;49.476;11.010;2023-08-31T11:20:07;1.85;;;1.27;;
16998;SDS011;10211;49.476;11.010;2023-08-31T11:22:37;3.20;;;1.73;;
16998;SDS011;10211;49.476;11.010;2023-08-31T11:25:05;4.25;;;1.90;;
16998;SDS011;10211;49.476;11.010;2023-08-31T11:27:32;4.07;;;1.50;;
16998;SDS011;10211;49.476;11.010;2023-08-31T11:29:59;2.67;;;1.30;;
16998;SDS011;10211;49.476;11.010;2023-08-31T11:32:26;1.50;;;1.40;;
16998;SDS011;10211;49.476;11.010;2023-08-31T11:34:53;2.83;;;1.60;;
16998;SDS011;10211;49.476;11.010;2023-08-31T11:37:21;3.63;;;1.75;;
16998;SDS011;10211;49.476;11.010;2023-08-31T11:39:49;2.33;;;1.45;;
16998;SDS011;10211;49.476;11.010;2023-08-31T11:42:16;2.00;;;1.50;;
16998;SDS011;10211;49.476;11.010;2023-08-31T11:44:44;3.60;;;1.60;;
16998;SDS011;10211;49.476;11.010;2023-08-31T11:47:12;3.23;;;1.63;;
16998;SDS011;10211;49.476;11.010;2023-08-31T11:49:40;2.27;;;1.47;;
16998;SDS011;10211;49.476;11.010;2023-08-31T11:52:09;2.30;;;1.47;;
16998;SDS011;10211;49.476;11.010;2023-08-31T11:54:38;4.90;;;1.50;;
16998;SDS011;10211;49.476;11.010;2023-08-31T11:57:06;4.93;;;1.87;;
16998;SDS011;10211;49.476;11.010;2023-08-31T11:59:34;3.60;;;1.57;;
16998;SDS011;10211;49.476;11.010;2023-08-31T12:02:04;2.67;;;1.57;;
16998;SDS011;10211;49.476;11.010;2023-08-31T12:04:32;4.10;;;1.50;;
16998;SDS011;10211;49.476;11.010;2023-08-31T12:07:00;4.37;;;1.70;;
16998;SDS011;10211;49.476;11.010;2023-08-31T12:09:31;1.70;;;1.20;;
16998;SDS011;10211;49.476;11.010;2023-08-31T12:12:00;1.10;;;0.93;;
16998;SDS011;10211;49.476;11.010;2023-08-31T12:14:29;3.00;;;1.60;;
16998;SDS011;10211;49.476;11.010;2023-08-31T12:17:00;4.72;;;1.23;;
16998;SDS011;10211;49.476;11.010;2023-08-31T12:19:28;2.05;;;1.20;;
16998;SDS011;10211;49.476;11.010;2023-08-31T12:21:55;3.90;;;1.38;;
16998;SDS011;10211;49.476;11.010;2023-08-31T12:24:22;6.15;;;1.50;;
16998;SDS011;10211;49.476;11.010;2023-08-31T12:26:50;2.15;;;1.30;;
16998;SDS011;10211;49.476;11.010;2023-08-31T12:29:20;1.40;;;1.23;;
16998;SDS011;10211;49.476;11.010;2023-08-31T12:31:47;3.50;;;1.70;;
16998;SDS011;10211;49.476;11.010;2023-08-31T12:34:14;3.22;;;1.25;;
16998;SDS011;10211;49.476;11.010;2023-08-31T12:36:42;3.20;;;1.30;;
16998;SDS011;10211;49.476;11.010;2023-08-31T12:39:09;4.85;;;1.63;;
16998;SDS011;10211;49.476;11.010;2023-08-31T12:41:37;3.60;;;1.55;;
16998;SDS011;10211;49.476;11.010;2023-08-31T12:44:04;2.30;;;1.50;;
16998;SDS011;10211;49.476;11.010;2023-08-31T12:46:32;3.10;;;1.00;;
16998;SDS011;10211;49.476;11.010;2023-08-31T12:48:59;2.30;;;1.50;;
16998;SDS011;10211;49.476;11.010;2023-08-31T12:51:27;4.40;;;1.57;;
16998;SDS011;10211;49.476;11.010;2023-08-31T12:53:54;2.33;;;1.33;;
16998;SDS011;10211;49.476;11.010;2023-08-31T12:56:42;2.53;;;1.38;;
16998;SDS011;10211;49.476;11.010;2023-08-31T12:59:09;1.90;;;1.10;;
16998;SDS011;10211;49.476;11.010;2023-08-31T13:04:59;2.13;;;1.45;;
16998;SDS011;10211;49.476;11.010;2023-08-31T13:07:26;2.75;;;1.30;;
16998;SDS011;10211;49.476;11.010;2023-08-31T13:09:53;3.13;;;1.23;;
16998;SDS011;10211;49.476;11.010;2023-08-31T13:12:19;2.42;;;1.33;;
16998;SDS011;10211;49.476;11.010;2023-08-31T13:14:46;5.07;;;1.30;;
16998;SDS011;10211;49.476;11.010;2023-08-31T13:17:13;3.42;;;1.23;;
16998;SDS011;10211;49.476;11.010;2023-08-31T13:19:39;3.70;;;1.30;;
16998;SDS011;10211;49.476;11.010;2023-08-31T13:22:08;2.33;;;1.15;;
16998;SDS011;10211;49.476;11.010;2023-08-31T13:24:40;3.40;;;1.10;;
16998;SDS011;10211;49.476;11.010;2023-08-31T13:27:16;2.85;;;1.20;;
16998;SDS011;10211;49.476;11.010;2023-08-31T13:30:02;4.28;;;1.58;;
16998;SDS011;10211;49.476;11.010;2023-08-31T13:32:32;2.42;;;1.20;;
16998;SDS011;10211;49.476;11.010;2023-08-31T13:34:59;2.65;;;1.10;;
16998;SDS011;10211;49.476;11.010;2023-08-31T13:37:27;1.90;;;1.25;;
16998;SDS011;10211;49.476;11.010;2023-08-31T13:39:54;1.83;;;1.02;;
16998;SDS011;10211;49.476;11.010;2023-08-31T13:42:21;2.67;;;1.42;;
16998;SDS011;10211;49.476;11.010;2023-08-31T13:44:48;1.38;;;1.10;;
16998;SDS011;10211;49.476;11.010;2023-08-31T13:47:14;2.70;;;1.58;;
16998;SDS011;10211;49.476;11.010;2023-08-31T13:49:41;2.83;;;1.50;;
16998;SDS011;10211;49.476;11.010;2023-08-31T13:52:08;1.77;;;1.27;;
16998;SDS011;10211;49.476;11.010;2023-08-31T13:54:37;2.63;;;1.03;;
16998;SDS011;10211;49.476;11.010;2023-08-31T13:59:50;2.20;;;1.37;;
16998;SDS011;10211;49.476;11.010;2023-08-31T14:02:22;3.57;;;1.30;;
16998;SDS011;10211;49.476;11.010;2023-08-31T14:04:51;2.17;;;1.33;;
16998;SDS011;10211;49.476;11.010;2023-08-31T14:07:39;1.80;;;1.33;;
16998;SDS011;10211;49.476;11.010;2023-08-31T14:10:09;2.10;;;1.20;;
16998;SDS011;10211;49.476;11.010;2023-08-31T14:12:36;3.10;;;1.30;;
16998;SDS011;10211;49.476;11.010;2023-08-31T14:15:05;2.57;;;1.70;;
16998;SDS011;10211;49.476;11.010;2023-08-31T14:17:32;3.17;;;1.40;;
16998;SDS011;10211;49.476;11.010;2023-08-31T14:19:59;3.77;;;1.30;;
16998;SDS011;10211;49.476;11.010;2023-08-31T14:22:31;7.33;;;1.23;;
16998;SDS011;10211;49.476;11.010;2023-08-31T14:24:58;1.43;;;1.03;;
16998;SDS011;10211;49.476;11.010;2023-08-31T14:27:27;1.30;;;1.20;;
16998;SDS011;10211;49.476;11.010;2023-08-31T14:29:55;3.47;;;1.57;;
16998;SDS011;10211;49.476;11.010;2023-08-31T14:32:22;1.90;;;1.10;;
16998;SDS011;10211;49.476;11.010;2023-08-31T14:34:49;1.90;;;1.47;;
16998;SDS011;10211;49.476;11.010;2023-08-31T14:37:15;2.17;;;1.50;;
16998;SDS011;10211;49.476;11.010;2023-08-31T14:39:42;2.77;;;1.40;;
16998;SDS011;10211;49.476;11.010;2023-08-31T14:42:09;1.47;;;1.03;;
16998;SDS011;10211;49.476;11.010;2023-08-31T14:44:37;1.23;;;1.13;;